Time;durP1;ratioP1;P1;durP2;ratioP2;P2;SDS_P1;SDS_P2;PMS_P1;PMS_P2;Temp;Humidity;BMP_temperature;BMP_pressure;BME280_temperature;BME280_humidity;BME280_pressure;Samples;Min_cycle;Max_cycle;Signal;HPM_P1;HPM_P2
2020/12/20 09:40:01;;;;;;;24.07;16.97;;;;;;;3.39;97.25;99478.31;5169061;27;20525;-79
2020/12/20 09:42:37;;;;;;;23.37;17.43;;;;;;;3.82;98.81;99475.50;5132443;27;38671;-81
2020/12/20 09:45:12;;;;;;;19.10;15.90;;;;;;;4.40;98.08;99491.44;5177276;22;42163;31
2020/12/20 09:47:41;;;;;;;20.47;15.60;;;;;;;4.75;95.61;99466.84;5045145;28;43566;-81
2020/12/20 09:50:10;;;;;;;18.97;15.80;;;;;;;5.09;92.05;99466.69;5065149;28;42557;-81
2020/12/20 09:52:37;;;;;;;19.57;15.80;;;;;;;5.03;88.59;99420.50;5065332;28;40162;-81
2020/12/20 09:55:07;;;;;;;18.43;15.50;;;;;;;5.39;87.44;99444.72;5044402;28;43066;-80
2020/12/20 09:57:35;;;;;;;18.57;14.90;;;;;;;5.60;85.14;99466.81;5198621;22;43037;-79
2020/12/20 10:00:02;;;;;;;18.30;14.60;;;;;;;5.67;83.90;99471.84;5105412;28;41564;-82
2020/12/20 10:02:39;;;;;;;17.60;14.67;;;;;;;5.88;82.59;99485.16;5104678;28;41484;-80
2020/12/20 10:05:07;;;;;;;16.67;13.93;;;;;;;5.97;82.42;99485.75;5095789;27;42938;-81
2020/12/20 10:07:34;;;;;;;20.67;15.63;;;;;;;6.06;79.70;99479.28;5108332;27;44770;-81
2020/12/20 10:10:03;;;;;;;19.57;16.27;;;;;;;6.12;78.84;99481.72;5202395;22;42990;-81
2020/12/20 10:12:32;;;;;;;19.40;15.07;;;;;;;6.23;79.02;99470.84;5104420;28;40876;-81
2020/12/20 10:14:59;;;;;;;17.10;13.97;;;;;;;6.36;78.19;99472.13;5094243;27;42148;-80
2020/12/20 10:17:26;;;;;;;16.00;13.90;;;;;;;6.36;75.15;99482.66;5124980;27;43450;-79
2020/12/20 10:22:35;;;;;;;16.57;14.00;;;;;;;6.44;75.96;99444.63;5061789;28;39775;-82
2020/12/20 10:25:03;;;;;;;16.33;13.73;;;;;;;6.59;75.44;99451.09;5053800;28;42208;-83
2020/12/20 10:27:30;;;;;;;15.37;13.03;;;;;;;6.67;74.63;99456.97;5038253;28;42868;-82
2020/12/20 10:29:58;;;;;;;16.13;13.17;;;;;;;6.73;74.07;99467.25;5046812;28;42525;-82
2020/12/20 10:32:26;;;;;;;15.87;13.20;;;;;;;6.76;74.23;99461.88;5135116;22;41956;-82
2020/12/20 10:34:53;;;;;;;15.27;13.13;;;;;;;6.77;72.96;99468.84;5062240;28;41942;-81
2020/12/20 10:37:20;;;;;;;15.67;13.60;;;;;;;6.62;73.02;99442.25;5040576;28;43762;-83
2020/12/20 10:39:47;;;;;;;15.67;13.13;;;;;;;6.72;73.04;99460.25;5064180;28;42268;-83
2020/12/20 10:42:15;;;;;;;14.20;12.70;;;;;;;6.72;73.24;99460.25;5066277;28;40160;-82
2020/12/20 10:44:43;;;;;;;15.67;13.53;;;;;;;6.81;72.82;99469.56;5142448;22;43102;-81
2020/12/20 10:47:11;;;;;;;16.37;13.73;;;;;;;6.79;71.11;99472.28;5062465;28;44309;-82
2020/12/20 10:49:38;;;;;;;15.10;12.60;;;;;;;6.60;71.14;99451.97;5094457;28;41756;-83
2020/12/20 10:52:05;;;;;;;15.37;13.63;;;;;;;6.76;71.14;99469.78;5068496;28;40945;-81
2020/12/20 10:54:32;;;;;;;15.07;13.47;;;;;;;6.73;71.25;99464.63;5062795;28;41767;-83
2020/12/20 10:57:01;;;;;;;14.43;12.83;;;;;;;6.88;71.58;99470.22;5125859;22;44710;-82
2020/12/20 10:59:32;;;;;;;15.63;13.57;;;;;;;6.92;71.19;99472.69;5032991;28;43373;-81
2020/12/20 11:02:00;;;;;;;16.30;14.20;;;;;;;7.03;71.17;99469.66;5012798;28;39906;-81
2020/12/20 11:04:28;;;;;;;17.30;14.37;;;;;;;7.10;70.86;99455.31;5009851;28;42140;-81
2020/12/20 11:06:56;;;;;;;14.87;13.07;;;;;;;7.18;69.82;99459.34;5121336;22;42905;-81
2020/12/20 11:09:24;;;;;;;15.13;13.00;;;;;;;7.25;69.29;99472.31;5054878;28;42531;-82
2020/12/20 11:11:51;;;;;;;15.23;12.97;;;;;;;7.36;70.28;99468.31;5055643;28;40538;-81
2020/12/20 11:14:19;;;;;;;13.90;12.23;;;;;;;7.38;69.08;99434.88;5072523;28;41707;-80
2020/12/20 11:16:46;;;;;;;15.10;12.93;;;;;;;7.63;68.42;99454.97;5055929;28;43270;-80
2020/12/20 11:19:14;;;;;;;15.90;13.03;;;;;;;7.44;67.96;99399.50;5130095;22;42371;-79
2020/12/20 11:21:47;;;;;;;13.97;12.47;;;;;;;7.87;68.00;99448.66;5031967;28;40381;-80
2020/12/20 11:24:14;;;;;;;13.50;11.33;;;;;;;8.01;67.82;99456.84;5049820;28;41678;-82
2020/12/20 11:26:42;;;;;;;14.67;13.07;;;;;;;8.13;67.39;99453.69;5016232;28;43532;-81
2020/12/20 11:29:10;;;;;;;15.90;12.77;;;;;;;8.20;66.27;99457.78;5039183;28;42754;-81
2020/12/20 11:31:37;;;;;;;14.77;12.83;;;;;;;8.27;66.20;99442.53;5132701;22;40828;-81
2020/12/20 11:34:06;;;;;;;13.27;11.47;;;;;;;8.23;66.27;99420.69;5012269;28;42873;-81
2020/12/20 11:36:33;;;;;;;13.93;12.47;;;;;;;8.47;66.47;99444.31;5012205;28;42850;-82
2020/12/20 11:39:02;;;;;;;14.20;12.43;;;;;;;8.51;65.85;99440.63;4996547;28;43775;-80
2020/12/20 11:41:40;;;;;;;13.63;11.97;;;;;;;8.69;66.32;99439.78;5043924;22;39821;31
2020/12/20 11:44:07;;;;;;;13.27;11.67;;;;;;;8.83;66.55;99442.66;5025651;28;40862;-79
2020/12/20 11:46:34;;;;;;;15.27;11.60;;;;;;;8.81;65.79;99430.44;5028474;28;43455;-79
2020/12/20 11:49:02;;;;;;;14.27;11.30;;;;;;;8.89;65.51;99428.31;5028092;28;40457;-81
2020/12/20 11:51:30;;;;;;;13.90;11.93;;;;;;;9.00;65.30;99434.81;5012195;28;40403;-79
2020/12/20 11:53:57;;;;;;;13.77;12.30;;;;;;;8.92;64.61;99436.94;5100390;22;43300;-79
2020/12/20 11:56:25;;;;;;;14.40;12.90;;;;;;;8.83;64.74;99421.53;5028406;28;43640;-80
2020/12/20 11:58:53;;;;;;;13.43;11.97;;;;;;;8.96;65.22;99440.31;5027202;28;42888;-79
2020/12/20 12:01:22;;;;;;;14.07;12.67;;;;;;;9.05;64.82;99452.22;5027578;28;41466;-80
2020/12/20 12:03:49;;;;;;;14.27;12.77;;;;;;;9.05;65.21;99439.88;5028066;28;41822;-81
2020/12/20 12:06:17;;;;;;;13.93;12.40;;;;;;;9.12;64.73;99451.03;5101118;22;43308;-81
2020/12/20 12:08:45;;;;;;;14.03;12.53;;;;;;;9.02;64.05;99434.75;5031845;28;44174;-80
2020/12/20 12:11:17;;;;;;;13.47;12.07;;;;;;;9.07;63.86;99445.09;5031325;28;39621;-80
2020/12/20 12:13:45;;;;;;;12.90;11.07;;;;;;;9.02;64.17;99448.78;5032046;28;42811;-79
2020/12/20 12:16:15;;;;;;;12.90;11.53;;;;;;;9.00;65.09;99448.03;5031360;28;42823;-79
2020/12/20 12:18:42;;;;;;;13.60;12.13;;;;;;;8.93;64.20;99446.59;5137049;22;42008;-80
2020/12/20 12:21:15;;;;;;;13.47;11.90;;;;;;;8.90;64.54;99449.34;5051954;28;40526;-79
2020/12/20 12:23:43;;;;;;;14.00;12.23;;;;;;;8.67;64.50;99430.22;5035863;28;42334;-81
2020/12/20 12:26:10;;;;;;;13.63;12.23;;;;;;;8.68;64.68;99445.13;5051321;28;43211;-80
2020/12/20 12:28:37;;;;;;;14.83;12.13;;;;;;;8.54;64.70;99440.47;5122397;22;42106;-80
2020/12/20 12:31:05;;;;;;;15.87;13.03;;;;;;;8.56;64.56;99449.19;5011571;28;40019;-81
2020/12/20 12:33:32;;;;;;;14.83;12.23;;;;;;;8.48;65.60;99441.63;4995828;28;43869;-80
2020/12/20 12:36:00;;;;;;;14.73;11.60;;;;;;;8.44;65.68;99423.34;5011350;28;43493;-81
2020/12/20 12:38:27;;;;;;;14.30;12.33;;;;;;;8.57;65.86;99445.63;5024337;28;42525;-81
2020/12/20 12:40:54;;;;;;;14.33;12.37;;;;;;;8.48;66.06;99430.22;5093533;23;41703;-80
2020/12/20 12:43:21;;;;;;;14.07;12.57;;;;;;;8.55;65.85;99447.47;5011608;28;41747;-81
2020/12/20 12:45:48;;;;;;;13.13;11.83;;;;;;;8.52;65.73;99448.50;4999307;28;43429;-81
2020/12/20 12:48:16;;;;;;;12.07;10.83;;;;;;;8.48;65.92;99456.59;5015239;28;42676;-79
2020/12/20 12:50:43;;;;;;;15.53;12.80;;;;;;;8.11;66.42;99386.94;5031131;28;40889;-81
2020/12/20 12:53:10;;;;;;;15.00;12.97;;;;;;;8.47;66.25;99444.31;5125481;22;41711;-78
2020/12/20 12:55:39;;;;;;;13.93;12.43;;;;;;;8.45;66.58;99440.91;4995344;28;43621;-81
2020/12/20 12:58:06;;;;;;;12.40;11.10;;;;;;;8.45;66.40;99440.91;5011218;28;42888;-79
2020/12/20 13:00:33;;;;;;;13.90;12.30;;;;;;;8.37;66.37;99432.47;5028384;28;40290;-81
2020/12/20 13:05:59;;;;;;;13.70;12.30;;;;;;;8.41;66.12;99444.59;5009319;28;42319;-79
2020/12/20 13:08:26;;;;;;;15.70;13.43;;;;;;;8.38;66.02;99444.75;4976714;28;42610;-84
2020/12/20 13:11:27;;;;;;;14.70;12.57;;;;;;;8.36;65.98;99446.59;4975259;28;42100;-84
2020/12/20 13:13:56;;;;;;;15.10;12.67;;;;;;;8.33;66.14;99444.06;4986964;28;42869;-83
2020/12/20 13:16:23;;;;;;;14.67;12.03;;;;;;;8.25;66.23;99453.16;5107660;22;43990;-84
2020/12/20 13:18:51;;;;;;;13.43;11.53;;;;;;;8.23;66.36;99447.09;4995244;28;43393;-85
2020/12/20 13:21:21;;;;;;;14.47;12.50;;;;;;;8.11;66.25;99415.97;5060093;28;40372;-86
2020/12/20 13:23:49;;;;;;;14.17;12.30;;;;;;;8.25;66.68;99441.75;5011774;28;41727;-83
2020/12/20 13:26:44;;;;;;;14.50;12.17;;;;;;;8.26;66.72;99444.31;5013563;28;43828;-82
2020/12/20 13:29:12;;;;;;;14.23;12.40;;;;;;;8.16;66.69;99424.53;5014982;28;42013;-83
2020/12/20 13:31:39;;;;;;;14.13;12.43;;;;;;;8.19;66.59;99434.09;4982258;28;41178;-83
2020/12/20 13:34:06;;;;;;;13.70;12.00;;;;;;;8.22;66.84;99440.09;4982989;28;44056;-81
2020/12/20 13:36:34;;;;;;;15.27;12.30;;;;;;;8.13;66.85;99435.22;4980201;28;43838;-84
2020/12/20 13:39:01;;;;;;;15.20;13.23;;;;;;;8.17;66.85;99439.44;5118153;22;43182;-85
2020/12/20 13:41:28;;;;;;;16.50;12.60;;;;;;;8.13;66.61;99445.78;5047964;28;42287;-83
2020/12/20 13:43:56;;;;;;;13.73;12.00;;;;;;;8.03;66.75;99428.66;5051283;28;42457;-84
2020/12/20 13:46:23;;;;;;;13.90;12.50;;;;;;;8.12;66.92;99438.78;5034944;28;44131;-84
2020/12/20 13:48:50;;;;;;;14.77;12.23;;;;;;;8.07;66.95;99446.03;5034083;28;42653;-84
2020/12/20 13:51:18;;;;;;;14.23;12.47;;;;;;;8.03;67.60;99436.56;5122029;22;40518;-84
2020/12/20 13:53:46;;;;;;;13.37;11.97;;;;;;;8.14;67.38;99458.06;5036019;28;43193;-83
2020/12/20 13:56:13;;;;;;;14.13;11.93;;;;;;;8.16;67.59;99450.91;5014043;28;43907;-84
2020/12/20 13:58:42;;;;;;;14.00;12.27;;;;;;;7.99;67.64;99421.78;5014492;28;42745;-84
2020/12/20 14:03:52;;;;;;;14.73;12.20;;;;;;;8.11;67.45;99442.34;5026420;28;20228;-83
2020/12/20 14:06:20;;;;;;;13.70;12.30;;;;;;;8.06;67.42;99457.50;5007634;28;43983;-84
2020/12/20 14:08:47;;;;;;;14.00;11.93;;;;;;;8.04;67.54;99456.69;5009844;28;42093;-84
2020/12/20 14:11:15;;;;;;;13.53;12.13;;;;;;;8.00;67.59;99457.78;4994092;28;40689;-83
2020/12/20 14:13:42;;;;;;;14.63;12.03;;;;;;;7.97;67.49;99460.53;5086557;22;42369;-82
2020/12/20 14:16:13;;;;;;;13.60;11.70;;;;;;;7.87;67.69;99459.22;5010122;28;43340;-84
2020/12/20 14:18:40;;;;;;;13.67;11.50;;;;;;;7.90;68.06;99464.38;4994257;28;42469;-82
2020/12/20 14:21:08;;;;;;;13.73;12.00;;;;;;;7.87;67.88;99446.03;5010399;28;40688;-82
2020/12/20 14:23:35;;;;;;;14.03;12.43;;;;;;;7.89;67.81;99457.38;4992754;28;43246;-83
2020/12/20 14:26:03;;;;;;;17.67;13.07;;;;;;;7.83;67.60;99452.34;5110339;22;44271;-82
2020/12/20 14:28:31;;;;;;;14.93;13.03;;;;;;;7.79;68.10;99466.59;5035558;28;41739;-80
2020/12/20 14:30:59;;;;;;;14.37;12.90;;;;;;;7.76;67.94;99456.16;5020129;28;41381;-83
2020/12/20 14:33:26;;;;;;;13.97;11.90;;;;;;;7.74;68.38;99452.72;5018611;28;41692;-82
2020/12/20 14:35:53;;;;;;;15.33;12.80;;;;;;;7.71;68.43;99456.34;5032666;28;42344;-83
2020/12/20 14:38:20;;;;;;;15.43;12.67;;;;;;;7.68;68.77;99445.06;5128948;22;43623;-83
2020/12/20 14:40:47;;;;;;;14.77;12.20;;;;;;;7.64;68.91;99448.78;5160882;22;40545;-81
2020/12/20 14:43:15;;;;;;;14.80;12.53;;;;;;;7.58;69.35;99445.44;5054266;28;41563;-82
2020/12/20 14:45:43;;;;;;;15.13;12.93;;;;;;;7.50;69.35;99437.00;5042081;28;43653;-81
2020/12/20 14:48:10;;;;;;;14.33;12.20;;;;;;;7.30;69.36;99409.72;5063799;28;43114;-80
2020/12/20 14:50:37;;;;;;;14.70;12.17;;;;;;;7.50;69.57;99450.19;5105776;23;40231;-79
2020/12/20 14:53:04;;;;;;;13.23;11.83;;;;;;;7.43;69.43;99446.06;5033338;28;41638;-79
2020/12/20 14:55:31;;;;;;;14.97;12.63;;;;;;;7.43;69.69;99448.69;5032319;28;43549;-81
2020/12/20 14:57:59;;;;;;;14.00;11.47;;;;;;;7.50;69.82;99457.22;5016951;28;44298;-83
2020/12/20 15:00:27;;;;;;;13.97;12.47;;;;;;;7.33;70.06;99436.81;5125108;22;39799;-83
2020/12/20 15:02:54;;;;;;;18.03;14.23;;;;;;;7.52;69.88;99464.16;5040178;28;42092;-83
2020/12/20 15:05:22;;;;;;;15.53;13.47;;;;;;;7.50;70.38;99479.19;5073843;28;44159;-85
2020/12/20 15:07:49;;;;;;;16.63;12.80;;;;;;;7.39;70.26;99462.94;5057253;28;43184;-82
2020/12/20 15:10:17;;;;;;;14.37;12.10;;;;;;;7.51;70.08;99469.50;5056103;28;40739;-83
2020/12/20 15:12:45;;;;;;;13.60;12.00;;;;;;;7.44;70.38;99460.97;5114151;22;43065;-84
2020/12/20 15:15:13;;;;;;;13.10;11.37;;;;;;;7.43;70.41;99466.28;5013903;28;43904;-81
2020/12/20 15:17:42;;;;;;;14.40;12.17;;;;;;;7.39;70.37;99465.56;5005259;28;42688;-82
2020/12/20 15:20:09;;;;;;;14.93;12.10;;;;;;;7.38;70.47;99471.75;4997584;28;40962;-84
2020/12/20 15:22:36;;;;;;;15.50;13.17;;;;;;;7.36;70.84;99470.97;5008987;28;42401;-82
2020/12/20 15:25:03;;;;;;;13.67;12.20;;;;;;;7.36;70.61;99478.88;5120604;22;43632;-82
2020/12/20 15:27:31;;;;;;;14.43;12.40;;;;;;;7.36;70.77;99478.00;5064972;28;42307;-82
2020/12/20 15:29:58;;;;;;;13.37;11.27;;;;;;;7.31;70.56;99470.28;5089863;28;40955;-82
2020/12/20 15:32:25;;;;;;;16.03;12.37;;;;;;;7.25;70.85;99475.78;5055366;28;42268;-82
2020/12/20 15:34:53;;;;;;;13.57;11.70;;;;;;;7.35;70.92;99476.28;5052282;28;43573;-84
2020/12/20 15:37:21;;;;;;;13.93;11.30;;;;;;;7.24;70.95;99457.41;5193156;22;42814;-82
2020/12/20 15:39:49;;;;;;;13.93;11.97;;;;;;;7.32;71.05;99479.03;5075979;28;40833;-81
2020/12/20 15:42:16;;;;;;;13.70;12.03;;;;;;;7.16;71.08;99455.94;5092679;28;41703;-83
